Time;durP1;ratioP1;P1;durP2;ratioP2;P2;SDS_P1;SDS_P2;PMS_P1;PMS_P2;Temp;Humidity;BMP_temperature;BMP_pressure;BME280_temperature;BME280_humidity;BME280_pressure;Samples;Min_cycle;Max_cycle;Signal;HPM_P1;HPM_P2
2020/12/17 00:00:43;;;;;;;;;;;;;;;20.48;40.15;101879.06;5098075;28;743;-60
2020/12/17 00:03:08;;;;;;;;;;;;;;;20.16;40.75;101882.81;5097985;28;818;-60
2020/12/17 00:05:34;;;;;;;;;;;;;;;19.88;41.26;101884.09;5097605;28;1059;-59
2020/12/17 00:07:59;;;;;;;;;;;;;;;19.49;42.05;101876.97;5098175;28;791;-59
2020/12/17 00:10:25;;;;;;;;;;;;;;;19.35;42.59;101878.53;5097837;28;740;-59
2020/12/17 00:12:50;;;;;;;;;;;;;;;20.25;40.80;101876.78;5097480;28;835;-59
2020/12/17 00:15:16;;;;;;;;;;;;;;;20.52;39.64;101882.94;5097780;28;795;-59
2020/12/17 00:17:42;;;;;;;;;;;;;;;20.07;40.75;101872.59;5097661;28;1977;-59
2020/12/17 00:20:08;;;;;;;;;;;;;;;19.88;41.15;101872.22;5097149;28;1047;-59
2020/12/17 00:22:34;;;;;;;;;;;;;;;19.40;42.25;101881.31;5097619;28;740;-59
2020/12/17 00:25:00;;;;;;;;;;;;;;;19.23;42.71;101880.66;5096753;28;826;-60
2020/12/17 00:27:25;;;;;;;;;;;;;;;20.25;40.44;101868.50;5097495;28;811;-59
2020/12/17 00:29:50;;;;;;;;;;;;;;;20.50;39.95;101871.31;5096167;28;846;-57
2020/12/17 00:32:16;;;;;;;;;;;;;;;20.12;40.83;101867.91;5097411;28;897;-56
2020/12/17 00:34:41;;;;;;;;;;;;;;;19.89;41.12;101862.84;5097164;28;985;-58
2020/12/17 00:37:07;;;;;;;;;;;;;;;19.34;42.48;101859.50;5097212;28;1906;-56
2020/12/17 00:39:32;;;;;;;;;;;;;;;19.08;43.21;101865.66;5097531;28;806;-56
2020/12/17 00:41:57;;;;;;;;;;;;;;;20.33;40.55;101865.22;5097229;28;835;-56
2020/12/17 00:44:23;;;;;;;;;;;;;;;20.67;39.49;101859.16;5107084;28;1161;-56
2020/12/17 00:46:49;;;;;;;;;;;;;;;20.26;40.46;101856.31;5117819;28;779;-56
2020/12/17 00:49:14;;;;;;;;;;;;;;;19.98;41.11;101850.19;5117405;28;881;-57
2020/12/17 00:51:39;;;;;;;;;;;;;;;19.27;42.15;101855.03;5100086;28;1000;-58
2020/12/17 00:54:05;;;;;;;;;;;;;;;19.73;41.85;101856.41;5096814;28;925;-57
2020/12/17 00:56:30;;;;;;;;;;;;;;;20.55;39.79;101847.56;5096926;28;747;-58
2020/12/17 00:58:56;;;;;;;;;;;;;;;20.15;40.55;101836.16;5095125;28;1980;-58
2020/12/17 01:01:21;;;;;;;;;;;;;;;20.05;40.64;101845.25;5096582;28;831;-57
2020/12/17 01:03:46;;;;;;;;;;;;;;;19.61;41.86;101842.81;5095846;28;819;-57
2020/12/17 01:06:12;;;;;;;;;;;;;;;19.16;42.76;101845.03;5096262;28;1125;-57
2020/12/17 01:08:37;;;;;;;;;;;;;;;20.16;40.68;101837.78;5096423;28;835;-56
2020/12/17 01:11:03;;;;;;;;;;;;;;;20.61;39.35;101827.13;5096266;28;873;-57
2020/12/17 01:13:28;;;;;;;;;;;;;;;20.20;40.40;101827.88;5096908;28;823;-57
2020/12/17 01:15:54;;;;;;;;;;;;;;;19.99;40.75;101833.34;5096564;28;886;-58
2020/12/17 01:18:19;;;;;;;;;;;;;;;19.51;41.82;101831.75;5096176;28;1917;-58
2020/12/17 01:20:44;;;;;;;;;;;;;;;19.73;41.70;101835.16;5096860;28;1071;-57
2020/12/17 01:23:10;;;;;;;;;;;;;;;20.51;39.75;101823.25;5096655;28;783;-52
2020/12/17 01:25:35;;;;;;;;;;;;;;;20.19;40.35;101831.75;5096319;28;799;-54
2020/12/17 01:28:01;;;;;;;;;;;;;;;20.03;40.58;101825.34;5096869;28;812;-54
2020/12/17 01:30:26;;;;;;;;;;;;;;;19.58;41.64;101822.09;5096546;28;831;-55
2020/12/17 01:32:52;;;;;;;;;;;;;;;19.08;43.17;101831.75;5096306;28;862;-55
2020/12/17 01:35:17;;;;;;;;;;;;;;;20.15;40.46;101828.69;5096280;28;887;-55
2020/12/17 01:37:43;;;;;;;;;;;;;;;20.33;39.86;101821.84;5095844;28;1975;-54
2020/12/17 01:40:08;;;;;;;;;;;;;;;19.94;40.82;101824.22;5096556;28;743;-55
2020/12/17 01:42:33;;;;;;;;;;;;;;;19.70;41.40;101821.91;5096517;28;818;-53
2020/12/17 01:44:59;;;;;;;;;;;;;;;19.29;42.30;101829.94;5111252;28;1260;-54
2020/12/17 01:47:26;;;;;;;;;;;;;;;19.36;42.31;101829.72;5116626;28;778;-54
2020/12/17 01:49:52;;;;;;;;;;;;;;;20.40;39.96;101818.81;5113111;28;1370;-56
2020/12/17 01:52:17;;;;;;;;;;;;;;;20.56;39.35;101821.59;5096474;28;775;-55
2020/12/17 01:54:55;;;;;;;;;;;;;;;20.12;40.39;101831.19;5096731;28;737;-54
2020/12/17 01:57:21;;;;;;;;;;;;;;;19.85;40.85;101826.66;5096545;28;1975;-54
2020/12/17 01:59:47;;;;;;;;;;;;;;;19.28;42.21;101825.53;5096023;28;760;-54
2020/12/17 02:02:12;;;;;;;;;;;;;;;20.15;40.44;101819.59;5096169;28;806;-55
2020/12/17 02:04:38;;;;;;;;;;;;;;;20.60;39.28;101819.94;5078468;28;1161;-55
2020/12/17 02:07:04;;;;;;;;;;;;;;;20.16;40.31;101818.47;5096074;28;775;-55
2020/12/17 02:09:29;;;;;;;;;;;;;;;20.03;40.42;101822.59;5094614;28;1317;-55
2020/12/17 02:11:57;;;;;;;;;;;;;;;19.32;42.21;101826.66;5094940;28;763;-55
2020/12/17 02:14:23;;;;;;;;;;;;;;;19.34;42.31;101824.47;5095989;28;798;-54
2020/12/17 02:16:49;;;;;;;;;;;;;;;20.48;39.86;101823.78;5095908;28;1021;-54
2020/12/17 02:19:14;;;;;;;;;;;;;;;20.46;39.93;101825.97;5095927;28;1985;-55
2020/12/17 02:21:40;;;;;;;;;;;;;;;20.13;40.62;101819.88;5095969;28;949;-54
2020/12/17 02:24:05;;;;;;;;;;;;;;;19.89;40.98;101821.44;5095956;28;787;-53
2020/12/17 02:26:31;;;;;;;;;;;;;;;19.42;41.82;101823.97;5096096;28;759;-52
2020/12/17 02:28:56;;;;;;;;;;;;;;;19.25;42.58;101818.63;5096112;28;823;-54
2020/12/17 02:31:24;;;;;;;;;;;;;;;20.12;40.78;101826.47;5096117;28;755;-53
2020/12/17 02:33:49;;;;;;;;;;;;;;;20.46;39.70;101819.66;5095834;28;759;-54
2020/12/17 02:36:14;;;;;;;;;;;;;;;20.14;40.38;101824.25;5095989;28;953;-50
2020/12/17 02:38:42;;;;;;;;;;;;;;;19.95;40.96;101828.63;5095879;28;1973;-54
2020/12/17 02:41:07;;;;;;;;;;;;;;;19.49;41.89;101829.25;5095676;28;843;-55
2020/12/17 02:43:32;;;;;;;;;;;;;;;20.06;40.82;101827.56;5098713;28;1125;-54
2020/12/17 02:45:58;;;;;;;;;;;;;;;20.69;39.17;101829.34;5116178;28;767;-51
2020/12/17 02:48:23;;;;;;;;;;;;;;;20.04;40.68;101832.53;5117170;28;809;-54
2020/12/17 02:50:49;;;;;;;;;;;;;;;20.07;40.74;101829.22;5109927;28;1019;-54
2020/12/17 02:53:14;;;;;;;;;;;;;;;19.38;42.09;101833.88;5099624;28;778;-54
2020/12/17 02:55:40;;;;;;;;;;;;;;;19.48;42.13;101828.41;5099126;28;735;-55
2020/12/17 02:58:05;;;;;;;;;;;;;;;20.51;39.66;101833.47;5099338;28;1965;-54
2020/12/17 03:00:30;;;;;;;;;;;;;;;20.21;40.13;101821.25;5099274;28;787;-53
2020/12/17 03:02:56;;;;;;;;;;;;;;;20.06;40.58;101835.03;5099032;28;969;-54
2020/12/17 03:05:21;;;;;;;;;;;;;;;19.62;41.46;101838.97;5099334;28;949;-53
2020/12/17 03:07:47;;;;;;;;;;;;;;;19.24;42.38;101828.00;5099050;28;782;-54
2020/12/17 03:10:12;;;;;;;;;;;;;;;19.75;41.35;101830.19;5098804;28;814;-54
2020/12/17 03:12:44;;;;;;;;;;;;;;;20.61;39.55;101827.94;5099444;28;487;-53
2020/12/17 03:15:10;;;;;;;;;;;;;;;20.15;40.31;101836.97;5098953;28;767;-54
2020/12/17 03:17:35;;;;;;;;;;;;;;;20.03;40.79;101839.16;5099112;28;1910;-54
2020/12/17 03:20:01;;;;;;;;;;;;;;;19.49;41.76;101832.00;5098534;28;1019;-53
2020/12/17 03:22:26;;;;;;;;;;;;;;;19.33;42.39;101842.09;5098634;28;823;-54
2020/12/17 03:24:52;;;;;;;;;;;;;;;20.39;40.04;101830.13;5098669;28;889;-54
2020/12/17 03:27:17;;;;;;;;;;;;;;;20.06;40.54;101835.03;5098890;28;818;-52
2020/12/17 03:29:43;;;;;;;;;;;;;;;19.96;40.91;101830.28;5098874;28;751;-53
2020/12/17 03:32:08;;;;;;;;;;;;;;;19.74;41.29;101838.72;5098496;28;835;-53
2020/12/17 03:34:33;;;;;;;;;;;;;;;19.17;42.50;101832.91;5098699;28;839;-58
2020/12/17 03:36:59;;;;;;;;;;;;;;;20.20;40.55;101836.16;5098214;28;1980;-55
2020/12/17 03:39:24;;;;;;;;;;;;;;;20.53;39.60;101839.53;5098651;28;743;-58
2020/12/17 03:41:50;;;;;;;;;;;;;;;20.12;40.40;101843.06;5098509;28;835;-52
2020/12/17 03:44:15;;;;;;;;;;;;;;;19.88;40.96;101836.34;5107318;28;1106;-53
2020/12/17 03:46:40;;;;;;;;;;;;;;;19.29;42.40;101832.69;5118710;28;810;-54
2020/12/17 03:49:06;;;;;;;;;;;;;;;19.65;41.57;101836.47;5118753;28;873;-58
2020/12/17 03:51:31;;;;;;;;;;;;;;;20.50;39.73;101832.63;5102734;28;960;-56
2020/12/17 03:53:57;;;;;;;;;;;;;;;21.03;38.64;101837.09;5097986;28;798;-57
2020/12/17 03:56:22;;;;;;;;;;;;;;;20.71;39.22;101829.09;5098202;28;739;-55
2020/12/17 03:58:47;;;;;;;;;;;;;;;20.49;39.76;101830.13;5098087;28;1981;-56
2020/12/17 04:01:13;;;;;;;;;;;;;;;20.24;40.06;101836.44;5098275;28;747;-54
2020/12/17 04:03:38;;;;;;;;;;;;;;;19.48;41.60;101838.63;5097929;28;811;-53
2020/12/17 04:06:03;;;;;;;;;;;;;;;19.63;41.64;101840.63;5097925;28;1008;-53
2020/12/17 04:08:29;;;;;;;;;;;;;;;20.63;39.43;101842.31;5097893;28;783;-54
2020/12/17 04:10:54;;;;;;;;;;;;;;;20.11;40.41;101835.03;5097805;28;795;-59
2020/12/17 04:13:20;;;;;;;;;;;;;;;20.18;40.42;101839.19;5097963;28;782;-54
2020/12/17 04:15:45;;;;;;;;;;;;;;;19.66;41.46;101842.84;5097925;28;833;-56
2020/12/17 04:18:10;;;;;;;;;;;;;;;19.35;42.16;101839.94;5097573;28;1906;-57
2020/12/17 04:20:36;;;;;;;;;;;;;;;20.13;40.58;101839.19;5097453;28;1209;-60
2020/12/17 04:23:01;;;;;;;;;;;;;;;20.52;39.61;101835.09;5097771;28;886;-59
2020/12/17 04:25:27;;;;;;;;;;;;;;;19.94;41.00;101833.34;5097544;28;827;-59
2020/12/17 04:27:52;;;;;;;;;;;;;;;19.93;40.71;101844.66;5098069;28;815;-58
2020/12/17 04:30:18;;;;;;;;;;;;;;;19.45;42.13;101844.66;5097409;28;755;-60
2020/12/17 04:32:43;;;;;;;;;;;;;;;19.51;41.95;101845.53;5097542;28;754;-59
2020/12/17 04:35:08;;;;;;;;;;;;;;;20.52;39.60;101849.78;5097460;28;929;-59
2020/12/17 04:37:34;;;;;;;;;;;;;;;20.27;40.10;101844.19;5097475;28;1976;-57
2020/12/17 04:39:59;;;;;;;;;;;;;;;20.05;40.55;101844.41;5097751;28;746;-57
2020/12/17 04:42:25;;;;;;;;;;;;;;;19.82;40.91;101844.63;5097532;28;854;-57
2020/12/17 04:44:51;;;;;;;;;;;;;;;19.44;41.87;101854.84;5110932;28;1145;-57
2020/12/17 04:47:18;;;;;;;;;;;;;;;19.96;41.02;101844.09;5117823;28;763;-57
2020/12/17 04:49:47;;;;;;;;;;;;;;;20.71;39.12;101849.25;5116723;28;953;-57
2020/12/17 04:52:13;;;;;;;;;;;;;;;20.01;40.83;101863.44;5097247;28;760;-59
2020/12/17 04:54:38;;;;;;;;;;;;;;;19.96;40.68;101866.19;5097149;28;858;-59
2020/12/17 04:57:04;;;;;;;;;;;;;;;19.33;42.04;101858.66;5096153;28;1976;-60
2020/12/17 04:59:37;;;;;;;;;;;;;;;19.61;41.78;101867.66;5096904;28;838;-59
2020/12/17 05:02:03;;;;;;;;;;;;;;;20.60;39.37;101869.66;5097174;28;785;-58
2020/12/17 05:04:28;;;;;;;;;;;;;;;20.20;40.26;101868.47;5096275;28;873;-57
2020/12/17 05:06:54;;;;;;;;;;;;;;;20.25;40.12;101871.25;5095522;28;993;-57
2020/12/17 05:09:19;;;;;;;;;;;;;;;19.76;41.10;101873.25;5096899;28;834;-57
2020/12/17 05:11:46;;;;;;;;;;;;;;;19.47;41.98;101881.94;5096501;28;755;-57
2020/12/17 05:14:12;;;;;;;;;;;;;;;20.55;39.66;101877.94;5096767;28;784;-57
2020/12/17 05:16:37;;;;;;;;;;;;;;;20.42;39.63;101869.06;5096723;28;796;-58
2020/12/17 05:19:03;;;;;;;;;;;;;;;20.15;40.25;101867.34;5096664;28;1906;-56
2020/12/17 05:21:28;;;;;;;;;;;;;;;19.81;40.80;101876.06;5096551;28;949;-60
2020/12/17 05:23:54;;;;;;;;;;;;;;;19.10;42.54;101877.25;5095414;28;775;-57
2020/12/17 05:26:23;;;;;;;;;;;;;;;20.24;40.15;101877.88;5095466;28;1324;-56
2020/12/17 05:28:49;;;;;;;;;;;;;;;20.36;39.65;101878.47;5097286;28;764;-57
2020/12/17 05:31:20;;;;;;;;;;;;;;;20.05;40.25;101875.63;5095646;28;768;-57
2020/12/17 05:33:46;;;;;;;;;;;;;;;19.75;41.13;101879.03;5096697;28;826;-57
2020/12/17 05:36:13;;;;;;;;;;;;;;;19.37;41.85;101884.59;5096671;28;886;-48
2020/12/17 05:38:38;;;;;;;;;;;;;;;19.98;40.64;101878.63;5095194;28;1910;-58
2020/12/17 05:41:06;;;;;;;;;;;;;;;20.55;39.46;101889.00;5094089;28;824;-55
2020/12/17 05:43:31;;;;;;;;;;;;;;;20.09;40.32;101886.94;5098255;28;1172;-55
2020/12/17 05:45:57;;;;;;;;;;;;;;;19.94;40.65;101890.47;5116675;28;758;-55
2020/12/17 05:48:22;;;;;;;;;;;;;;;19.40;41.95;101886.81;5115094;28;863;-56
2020/12/17 05:50:48;;;;;;;;;;;;;;;19.52;41.81;101894.06;5106953;28;956;-55
2020/12/17 05:53:14;;;;;;;;;;;;;;;20.41;39.93;101895.06;5096198;28;755;-54
2020/12/17 05:55:39;;;;;;;;;;;;;;;20.11;40.41;101896.59;5096303;28;810;-56
2020/12/17 05:58:05;;;;;;;;;;;;;;;19.95;40.72;101892.13;5095723;28;1910;-56
2020/12/17 06:00:30;;;;;;;;;;;;;;;19.63;41.50;101904.09;5095237;28;739;-60
2020/12/17 06:02:56;;;;;;;;;;;;;;;19.24;42.70;101912.66;5094353;28;823;-52
2020/12/17 06:05:21;;;;;;;;;;;;;;;20.31;40.24;101912.44;5095392;28;882;-51
2020/12/17 06:07:47;;;;;;;;;;;;;;;20.15;40.09;101913.47;5094215;28;952;-50
2020/12/17 06:10:16;;;;;;;;;;;;;;;20.00;40.56;101905.94;5096320;28;867;-50
2020/12/17 06:12:41;;;;;;;;;;;;;;;19.67;41.35;101913.50;5096246;28;566;-56
2020/12/17 06:15:07;;;;;;;;;;;;;;;19.12;42.63;101916.41;5094406;28;956;-57
2020/12/17 06:17:35;;;;;;;;;;;;;;;19.99;40.70;101920.84;5096089;28;1910;-54
2020/12/17 06:20:00;;;;;;;;;;;;;;;20.57;39.46;101917.19;5094658;28;1162;-52
2020/12/17 06:22:26;;;;;;;;;;;;;;;20.00;40.53;101917.00;5094489;28;816;-51
2020/12/17 06:24:52;;;;;;;;;;;;;;;19.94;40.61;101926.38;5097758;28;1013;-56
2020/12/17 06:27:17;;;;;;;;;;;;;;;19.28;42.16;101933.09;5099695;28;778;-56
2020/12/17 06:29:55;;;;;;;;;;;;;;;19.53;41.77;101928.84;5097800;28;1010;-49
2020/12/17 06:32:20;;;;;;;;;;;;;;;20.52;39.65;101929.91;5098355;28;889;-58
2020/12/17 06:34:46;;;;;;;;;;;;;;;20.05;40.61;101929.97;5095829;28;887;-59
2020/12/17 06:37:12;;;;;;;;;;;;;;;20.02;40.64;101925.00;5098789;28;1917;-58
2020/12/17 06:39:45;;;;;;;;;;;;;;;19.66;41.22;101925.63;5098117;28;1345;-60
2020/12/17 06:42:30;;;;;;;;;;;;;;;19.10;42.64;101928.81;5099219;28;791;-62
2020/12/17 06:44:55;;;;;;;;;;;;;;;20.36;40.19;101922.66;5113595;28;1137;-56
2020/12/17 06:47:25;;;;;;;;;;;;;;;20.27;39.93;101916.00;5103704;28;932;-60
2020/12/17 06:49:51;;;;;;;;;;;;;;;19.88;41.05;101924.66;5097685;28;1012;-56
2020/12/17 06:52:16;;;;;;;;;;;;;;;19.75;41.31;101923.19;5099006;28;791;-52
2020/12/17 06:54:42;;;;;;;;;;;;;;;19.10;42.53;101932.38;5097927;28;794;-50
2020/12/17 06:57:14;;;;;;;;;;;;;;;19.82;41.27;101927.41;5099022;28;1980;-56
2020/12/17 06:59:40;;;;;;;;;;;;;;;20.72;39.32;101927.47;5098831;28;763;-55
2020/12/17 07:02:05;;;;;;;;;;;;;;;19.98;40.59;101924.72;5099041;28;810;-54
2020/12/17 07:04:44;;;;;;;;;;;;;;;20.03;40.59;101921.97;5097186;28;942;-56
2020/12/17 07:07:19;;;;;;;;;;;;;;;19.53;41.59;101923.31;5078511;28;787;-56
2020/12/17 07:09:45;;;;;;;;;;;;;;;19.14;42.78;101935.47;5078487;28;787;-55
2020/12/17 07:12:11;;;;;;;;;;;;;;;20.18;40.33;101927.56;5078885;28;763;-52
2020/12/17 07:14:37;;;;;;;;;;;;;;;20.20;40.13;101932.00;5077169;28;807;-50
2020/12/17 07:17:03;;;;;;;;;;;;;;;20.01;40.62;101932.47;5078387;28;756;-51
2020/12/17 07:19:28;;;;;;;;;;;;;;;19.78;41.02;101929.03;5078275;28;1906;-47
2020/12/17 07:21:58;;;;;;;;;;;;;;;19.40;41.81;101936.47;5097173;28;927;-51
2020/12/17 07:24:25;;;;;;;;;;;;;;;19.66;41.62;101939.41;5098433;28;779;-51
2020/12/17 07:26:50;;;;;;;;;;;;;;;20.58;39.53;101939.03;5098591;28;776;-46
2020/12/17 07:29:16;;;;;;;;;;;;;;;20.15;40.38;101938.34;5098317;28;815;-50
2020/12/17 07:31:41;;;;;;;;;;;;;;;19.99;40.79;101937.41;5098689;28;859;-53
2020/12/17 07:34:16;;;;;;;;;;;;;;;19.78;41.25;101942.81;5098318;28;728;-51
2020/12/17 07:36:45;;;;;;;;;;;;;;;19.54;41.68;101941.53;5098065;28;953;-49
2020/12/17 07:39:11;;;;;;;;;;;;;;;20.52;39.78;101946.47;5098384;28;1905;-48
2020/12/17 07:41:36;;;;;;;;;;;;;;;20.20;40.16;101945.81;5098476;28;748;-61
2020/12/17 07:44:06;;;;;;;;;;;;;;;20.03;40.71;101949.59;5104415;28;1140;-53
2020/12/17 07:46:35;;;;;;;;;;;;;;;19.64;41.24;101949.88;5119100;28;889;-53
2020/12/17 07:49:02;;;;;;;;;;;;;;;19.25;42.38;101951.00;5118689;28;859;-49
2020/12/17 07:51:31;;;;;;;;;;;;;;;19.26;42.33;101960.09;5102907;28;1012;-54
2020/12/17 07:53:56;;;;;;;;;;;;;;;20.32;40.14;101961.03;5098081;28;815;-54
2020/12/17 07:56:22;;;;;;;;;;;;;;;20.35;39.98;101949.44;5098014;28;823;-49
2020/12/17 07:58:47;;;;;;;;;;;;;;;20.17;40.25;101961.81;5097534;28;2398;-52
2020/12/17 08:01:13;;;;;;;;;;;;;;;19.87;40.96;101945.09;5098159;28;771;-46
2020/12/17 08:03:39;;;;;;;;;;;;;;;19.32;42.25;101962.63;5097805;28;839;-50
2020/12/17 08:06:05;;;;;;;;;;;;;;;19.96;41.09;101965.56;5097301;28;973;-49
2020/12/17 08:08:31;;;;;;;;;;;;;;;20.70;39.34;101960.91;5097762;28;862;-48
2020/12/17 08:10:56;;;;;;;;;;;;;;;20.00;40.84;101963.94;5096542;28;788;-50
2020/12/17 08:13:21;;;;;;;;;;;;;;;20.17;40.34;101960.97;5097437;28;783;-48
2020/12/17 08:15:53;;;;;;;;;;;;;;;19.44;41.81;101972.66;5097695;28;806;-56
2020/12/17 08:18:23;;;;;;;;;;;;;;;19.04;42.76;101968.44;5097676;28;1971;-50
2020/12/17 08:20:48;;;;;;;;;;;;;;;20.10;40.51;101961.22;5097007;28;1005;-58
2020/12/17 08:23:18;;;;;;;;;;;;;;;20.51;39.40;101955.88;5097512;28;747;-49
2020/12/17 08:25:43;;;;;;;;;;;;;;;20.07;40.50;101958.19;5097229;28;861;-52
2020/12/17 08:28:09;;;;;;;;;;;;;;;19.96;40.81;101955.38;5097521;28;779;-53
2020/12/17 08:30:34;;;;;;;;;;;;;;;19.42;41.81;101963.78;5096173;28;1092;-53
2020/12/17 08:32:59;;;;;;;;;;;;;;;19.03;42.79;101952.97;5097117;28;807;-49
2020/12/17 08:35:25;;;;;;;;;;;;;;;20.01;40.89;101946.28;5095507;28;1376;-46
2020/12/17 08:37:54;;;;;;;;;;;;;;;20.56;39.51;101935.69;5097161;28;1910;-47
2020/12/17 08:40:26;;;;;;;;;;;;;;;20.09;40.58;101947.69;5097047;28;802;-51
2020/12/17 08:42:56;;;;;;;;;;;;;;;19.90;40.81;101937.09;5097172;28;790;-50
2020/12/17 08:45:21;;;;;;;;;;;;;;;19.51;41.78;101934.63;5113577;28;1202;-48
2020/12/17 08:47:49;;;;;;;;;;;;;;;19.32;42.21;101939.72;5115828;28;862;-48
2020/12/17 08:50:14;;;;;;;;;;;;;;;20.42;39.98;101926.28;5111919;28;1111;-50
2020/12/17 08:52:40;;;;;;;;;;;;;;;20.14;40.40;101929.19;5096816;28;823;-53
2020/12/17 08:55:06;;;;;;;;;;;;;;;19.94;40.67;101923.59;5096850;28;862;-50
2020/12/17 08:57:32;;;;;;;;;;;;;;;19.54;41.54;101920.28;5096531;28;1975;-60
2020/12/17 08:59:58;;;;;;;;;;;;;;;19.37;41.91;101920.47;5096755;28;835;-53
2020/12/17 09:02:26;;;;;;;;;;;;;;;20.00;40.77;101923.34;5096664;28;786;-53
2020/12/17 09:04:58;;;;;;;;;;;;;;;20.55;39.36;101922.16;5096406;28;977;-54
2020/12/17 09:07:24;;;;;;;;;;;;;;;20.10;40.61;101914.28;5096867;28;767;-49
2020/12/17 09:09:49;;;;;;;;;;;;;;;19.92;40.86;101920.28;5096542;28;862;-50
2020/12/17 09:12:14;;;;;;;;;;;;;;;19.45;41.87;101919.97;5096598;28;752;-54
2020/12/17 09:14:40;;;;;;;;;;;;;;;19.17;42.85;101909.25;5096317;28;810;-50
2020/12/17 09:17:08;;;;;;;;;;;;;;;20.20;40.45;101916.25;5096601;28;783;-51
2020/12/17 09:19:34;;;;;;;;;;;;;;;20.17;40.28;101905.75;5096798;28;1917;-53
2020/12/17 09:22:00;;;;;;;;;;;;;;;19.94;40.82;101907.03;5096306;28;941;-51
2020/12/17 09:24:32;;;;;;;;;;;;;;;19.66;41.49;101903.56;5096506;28;862;-48
2020/12/17 09:26:57;;;;;;;;;;;;;;;19.32;42.33;101909.38;5096194;28;843;-56
2020/12/17 09:29:24;;;;;;;;;;;;;;;20.38;39.85;101905.81;5096476;28;747;-48
2020/12/17 09:31:49;;;;;;;;;;;;;;;20.40;39.77;101904.44;5094696;28;859;-53
2020/12/17 09:34:16;;;;;;;;;;;;;;;19.96;40.58;101904.81;5095885;28;917;-48
2020/12/17 09:36:45;;;;;;;;;;;;;;;19.61;41.34;101901.56;5096396;28;888;-48
2020/12/17 09:39:14;;;;;;;;;;;;;;;19.17;42.54;101904.59;5096196;28;1963;-47
2020/12/17 09:41:49;;;;;;;;;;;;;;;20.26;40.20;101893.09;5095724;28;894;-47
2020/12/17 09:44:26;;;;;;;;;;;;;;;20.43;39.77;101894.78;5104788;28;1204;-50
2020/12/17 09:46:52;;;;;;;;;;;;;;;20.03;40.61;101894.38;5116722;28;823;-59
2020/12/17 09:49:33;;;;;;;;;;;;;;;19.53;41.74;101890.22;5116077;28;791;-48
2020/12/17 09:51:59;;;;;;;;;;;;;;;19.11;42.67;101900.97;5096360;28;949;-49
2020/12/17 09:54:24;;;;;;;;;;;;;;;20.26;40.19;101892.22;5096196;28;835;-47
2020/12/17 09:57:06;;;;;;;;;;;;;;;20.47;39.74;101896.72;5095525;28;752;-52
2020/12/17 09:59:31;;;;;;;;;;;;;;;19.98;40.66;101894.38;5100110;28;2301;-57
2020/12/17 10:01:57;;;;;;;;;;;;;;;19.83;41.08;101890.41;5100181;28;815;-50
2020/12/17 10:04:23;;;;;;;;;;;;;;;19.05;42.85;101892.91;5099876;28;803;-49
2020/12/17 10:06:48;;;;;;;;;;;;;;;20.11;40.63;101885.56;5099863;28;954;-51
2020/12/17 10:09:16;;;;;;;;;;;;;;;20.68;39.19;101877.47;5099954;28;791;-49
2020/12/17 10:11:48;;;;;;;;;;;;;;;19.94;40.97;101879.44;5099782;28;943;-54
2020/12/17 10:14:13;;;;;;;;;;;;;;;20.00;40.45;101873.66;5100091;28;798;-48
2020/12/17 10:16:38;;;;;;;;;;;;;;;19.04;42.72;101883.81;5099790;28;742;-57
2020/12/17 10:19:04;;;;;;;;;;;;;;;19.77;41.36;101888.72;5099346;28;1913;-50
2020/12/17 10:21:29;;;;;;;;;;;;;;;20.62;39.47;101876.59;5099530;28;949;-50
2020/12/17 10:23:55;;;;;;;;;;;;;;;21.14;38.44;101873.84;5099726;28;770;-56
2020/12/17 10:26:20;;;;;;;;;;;;;;;20.46;39.60;101870.19;5099654;28;855;-48
2020/12/17 10:28:46;;;;;;;;;;;;;;;20.36;39.96;101872.94;5099579;28;823;-52
2020/12/17 10:31:12;;;;;;;;;;;;;;;19.88;40.85;101855.66;5099593;28;764;-49
2020/12/17 10:33:37;;;;;;;;;;;;;;;19.18;42.43;101855.78;5099443;28;811;-53
2020/12/17 10:36:03;;;;;;;;;;;;;;;19.99;40.79;101855.44;5099523;28;957;-48
2020/12/17 10:38:28;;;;;;;;;;;;;;;20.52;39.40;101846.16;5099475;28;1988;-52
2020/12/17 10:40:54;;;;;;;;;;;;;;;20.10;40.48;101847.19;5099232;28;819;-51
2020/12/17 10:43:22;;;;;;;;;;;;;;;19.75;41.30;101852.25;5100492;28;1126;-47
2020/12/17 10:45:47;;;;;;;;;;;;;;;19.08;42.74;101846.38;5119746;28;847;-54
2020/12/17 10:48:13;;;;;;;;;;;;;;;20.00;40.82;101835.00;5119512;28;826;-52
2020/12/17 10:50:39;;;;;;;;;;;;;;;20.77;39.00;101841.78;5110879;28;957;-50
2020/12/17 10:53:07;;;;;;;;;;;;;;;20.04;40.68;101840.81;5099435;28;903;-58
2020/12/17 10:55:32;;;;;;;;;;;;;;;19.76;41.21;101831.84;5099403;28;538;-60
2020/12/17 10:58:01;;;;;;;;;;;;;;;19.22;42.48;101840.38;5099097;28;1921;-54
2020/12/17 11:00:26;;;;;;;;;;;;;;;19.52;42.17;101833.38;5099740;28;763;-50
2020/12/17 11:02:51;;;;;;;;;;;;;;;20.48;39.63;101834.84;5099043;28;775;-52
2020/12/17 11:05:17;;;;;;;;;;;;;;;20.33;39.80;101826.53;5099086;28;1008;-50
2020/12/17 11:07:42;;;;;;;;;;;;;;;19.97;40.65;101830.03;5098991;28;727;-56
2020/12/17 11:10:09;;;;;;;;;;;;;;;19.69;41.12;101827.69;5097936;28;847;-52
2020/12/17 11:12:35;;;;;;;;;;;;;;;19.27;42.76;101837.66;5105009;28;775;-53
2020/12/17 11:15:00;;;;;;;;;;;;;;;20.28;40.09;101832.03;5119513;28;724;-52
2020/12/17 11:17:26;;;;;;;;;;;;;;;20.51;39.50;101828.75;5118926;28;1979;-54
2020/12/17 11:19:52;;;;;;;;;;;;;;;20.00;40.59;101834.16;5116592;28;1070;-59
2020/12/17 11:22:17;;;;;;;;;;;;;;;19.85;40.84;101823.91;5098732;28;763;-49
2020/12/17 11:24:43;;;;;;;;;;;;;;;19.26;42.35;101824.97;5098460;28;810;-58
2020/12/17 11:27:08;;;;;;;;;;;;;;;20.37;39.87;101822.13;5098644;28;784;-47
2020/12/17 11:29:34;;;;;;;;;;;;;;;20.42;39.66;101824.88;5098953;28;747;-49
2020/12/17 11:31:59;;;;;;;;;;;;;;;19.86;41.09;101825.56;5098122;28;520;-48
2020/12/17 11:34:24;;;;;;;;;;;;;;;19.78;41.01;101821.38;5098407;28;732;-48
2020/12/17 11:36:50;;;;;;;;;;;;;;;19.08;42.59;101821.56;5098448;28;961;-47
2020/12/17 11:39:15;;;;;;;;;;;;;;;20.01;40.69;101824.81;5097987;28;2031;-50
2020/12/17 11:41:41;;;;;;;;;;;;;;;20.62;39.15;101826.00;5098255;28;748;-47
2020/12/17 11:44:07;;;;;;;;;;;;;;;19.95;40.65;101825.88;5106359;28;1137;-47
2020/12/17 11:46:32;;;;;;;;;;;;;;;19.82;40.94;101827.22;5118431;28;827;-48
2020/12/17 11:48:57;;;;;;;;;;;;;;;19.28;42.09;101833.81;5118356;28;835;-45
2020/12/17 11:51:23;;;;;;;;;;;;;;;19.86;41.16;101828.31;5103485;28;1053;-46
2020/12/17 11:53:48;;;;;;;;;;;;;;;20.79;39.08;101829.38;5098054;28;767;-58
2020/12/17 11:56:14;;;;;;;;;;;;;;;20.12;40.48;101833.94;5097969;28;728;-59
2020/12/17 11:58:40;;;;;;;;;;;;;;;19.92;40.87;101821.75;5097944;28;1913;-57
2020/12/17 12:01:06;;;;;;;;;;;;;;;19.15;42.62;101833.19;5097828;28;818;-53
2020/12/17 12:03:31;;;;;;;;;;;;;;;19.66;41.69;101829.88;5097867;28;742;-52
2020/12/17 12:05:57;;;;;;;;;;;;;;;20.63;39.53;101825.72;5096617;28;958;-51
2020/12/17 12:08:22;;;;;;;;;;;;;;;20.14;40.33;101823.44;5097921;28;743;-53
2020/12/17 12:10:49;;;;;;;;;;;;;;;20.00;40.80;101834.16;5097520;28;826;-53
2020/12/17 12:13:14;;;;;;;;;;;;;;;19.39;42.02;101829.19;5098018;28;832;-52
2020/12/17 12:15:40;;;;;;;;;;;;;;;19.49;42.07;101820.97;5097521;28;846;-53
2020/12/17 12:18:05;;;;;;;;;;;;;;;20.52;39.66;101829.59;5097870;28;1957;-53
2020/12/17 12:20:30;;;;;;;;;;;;;;;20.21;40.20;101828.72;5096407;28;1196;-51
2020/12/17 12:22:56;;;;;;;;;;;;;;;19.97;40.94;101832.78;5096975;28;798;-55
2020/12/17 12:25:21;;;;;;;;;;;;;;;19.66;41.63;101834.56;5097350;28;850;-54
2020/12/17 12:27:48;;;;;;;;;;;;;;;19.15;42.98;101829.56;5097347;28;739;-54
2020/12/17 12:30:14;;;;;;;;;;;;;;;20.29;40.49;101831.75;5097565;28;775;-53
2020/12/17 12:32:39;;;;;;;;;;;;;;;20.22;40.06;101824.84;5097163;28;747;-50
2020/12/17 12:35:05;;;;;;;;;;;;;;;19.83;40.99;101828.88;5096844;28;930;-52
2020/12/17 12:37:30;;;;;;;;;;;;;;;19.55;41.77;101835.63;5097702;28;1902;-59
2020/12/17 12:39:55;;;;;;;;;;;;;;;19.35;42.33;101839.94;5097021;28;782;-52
2020/12/17 12:42:21;;;;;;;;;;;;;;;20.48;40.06;101829.31;5096910;28;815;-59
2020/12/17 12:44:46;;;;;;;;;;;;;;;20.27;40.03;101825.69;5110238;28;1121;-52
2020/12/17 12:47:14;;;;;;;;;;;;;;;19.93;40.90;101834.41;5117539;28;720;-54
2020/12/17 12:49:40;;;;;;;;;;;;;;;19.53;41.89;101835.03;5117000;28;956;-55